createdAt,value
2023-03-14T00:01:15.463Z,14.47
2023-03-14T00:03:43.726Z,13.50
2023-03-14T00:06:12.520Z,15.72
2023-03-14T00:08:41.495Z,12.78
2023-03-14T00:11:16.455Z,12.05
2023-03-14T00:13:45.816Z,14.20
2023-03-14T00:16:14.224Z,16.97
2023-03-14T00:18:41.880Z,19.90
2023-03-14T00:21:11.754Z,20.88
2023-03-14T00:23:41.905Z,15.30
2023-03-14T00:26:13.312Z,16.20
2023-03-14T00:28:43.028Z,14.55
2023-03-14T00:31:15.693Z,13.50
2023-03-14T00:33:45.103Z,14.80
2023-03-14T00:36:20.658Z,12.45
2023-03-14T00:38:51.539Z,14.73
2023-03-14T00:41:24.107Z,12.37
2023-03-14T00:43:52.237Z,12.00
2023-03-14T00:46:21.295Z,11.25
2023-03-14T00:48:49.724Z,10.53
2023-03-14T00:51:18.343Z,8.95
2023-03-14T00:53:46.468Z,10.58
2023-03-14T00:56:15.545Z,9.10
2023-03-14T00:58:43.410Z,10.95
2023-03-14T01:01:16.306Z,10.50
2023-03-14T01:03:44.330Z,10.55
2023-03-14T01:06:18.705Z,30.30
2023-03-14T01:08:47.245Z,35.00
2023-03-14T01:11:31.369Z,40.45
2023-03-14T01:14:00.172Z,55.52
2023-03-14T01:16:32.832Z,54.23
2023-03-14T01:19:03.395Z,64.72
2023-03-14T01:21:34.175Z,79.32
2023-03-14T01:24:04.572Z,78.80
2023-03-14T01:26:34.832Z,92.47
2023-03-14T01:29:04.571Z,89.77
2023-03-14T01:31:34.075Z,72.53
2023-03-14T01:34:01.910Z,55.40
2023-03-14T01:36:31.386Z,48.35
2023-03-14T01:39:00.493Z,33.13
2023-03-14T01:41:28.546Z,31.17
2023-03-14T01:43:58.640Z,29.87
2023-03-14T01:46:40.042Z,26.90
2023-03-14T01:49:30.599Z,34.05
2023-03-14T01:52:26.196Z,27.50
2023-03-14T01:55:04.771Z,27.75
2023-03-14T01:57:45.755Z,22.20
2023-03-14T02:00:21.605Z,18.82
2023-03-14T02:02:56.572Z,17.50
2023-03-14T02:05:28.736Z,13.35
2023-03-14T02:08:01.339Z,13.40
2023-03-14T02:10:42.491Z,10.70
2023-03-14T02:13:12.448Z,8.88
2023-03-14T02:15:42.805Z,7.72
2023-03-14T02:18:21.831Z,9.88
2023-03-14T02:21:30.066Z,11.15
2023-03-14T02:24:27.772Z,8.60
2023-03-14T02:27:14.074Z,9.88
2023-03-14T02:29:57.714Z,8.38
2023-03-14T02:32:28.668Z,9.03
2023-03-14T02:35:00.051Z,6.67
2023-03-14T02:37:45.084Z,7.80
2023-03-14T02:40:13.190Z,5.67
2023-03-14T02:42:40.953Z,9.00
2023-03-14T02:45:18.310Z,12.55
2023-03-14T02:48:00.907Z,13.88
2023-03-14T02:50:35.015Z,17.50
2023-03-14T02:53:03.196Z,19.98
2023-03-14T02:55:31.621Z,18.73
2023-03-14T02:58:01.113Z,11.30
2023-03-14T03:00:31.181Z,5.53
2023-03-14T03:02:58.984Z,7.25
2023-03-14T03:05:26.832Z,5.67
2023-03-14T03:07:54.516Z,16.32
2023-03-14T03:10:25.199Z,5.87
2023-03-14T03:12:53.279Z,8.38
2023-03-14T03:15:23.373Z,4.72
2023-03-14T03:17:52.012Z,5.05
2023-03-14T03:20:21.567Z,5.70
2023-03-14T03:22:50.511Z,5.30
2023-03-14T03:25:18.237Z,6.20
2023-03-14T03:27:47.166Z,5.45
2023-03-14T03:30:17.481Z,5.53
2023-03-14T03:32:45.490Z,9.03
2023-03-14T03:35:13.470Z,6.60
2023-03-14T03:37:42.688Z,12.55
2023-03-14T03:40:11.227Z,7.08
2023-03-14T03:42:39.510Z,18.35
2023-03-14T03:45:10.075Z,6.78
2023-03-14T03:47:39.797Z,5.97
2023-03-14T03:50:09.593Z,6.58
2023-03-14T03:52:37.233Z,6.90
2023-03-14T03:55:05.603Z,4.58
2023-03-14T03:57:33.667Z,8.48
2023-03-14T04:00:01.454Z,5.85
2023-03-14T04:02:31.032Z,5.37
2023-03-14T04:04:58.863Z,6.10
2023-03-14T04:07:27.225Z,9.85
2023-03-14T04:09:55.069Z,6.53
2023-03-14T04:12:24.925Z,8.68
2023-03-14T04:14:57.586Z,6.15
2023-03-14T04:17:25.524Z,7.62
2023-03-14T04:19:54.371Z,8.18
2023-03-14T04:22:23.698Z,8.85
2023-03-14T04:24:52.540Z,29.85
2023-03-14T04:27:21.502Z,6.00
2023-03-14T04:29:49.598Z,17.85
2023-03-14T04:32:19.353Z,7.20
2023-03-14T04:34:47.257Z,7.10
2023-03-14T04:37:15.388Z,5.58
2023-03-14T04:39:45.019Z,7.35
2023-03-14T04:42:14.727Z,10.05
2023-03-14T04:44:43.985Z,6.42
2023-03-14T04:47:12.693Z,10.15
2023-03-14T04:49:41.310Z,10.20
2023-03-14T04:52:11.159Z,17.70
2023-03-14T04:54:39.528Z,41.73
2023-03-14T04:57:07.274Z,15.35
2023-03-14T04:59:36.902Z,15.60
2023-03-14T05:02:06.827Z,12.10
2023-03-14T05:04:39.574Z,13.78
2023-03-14T05:07:27.662Z,9.40
2023-03-14T05:09:57.332Z,12.18
2023-03-14T05:12:27.075Z,12.98
2023-03-14T05:14:59.710Z,10.13
2023-03-14T05:17:34.336Z,14.58
2023-03-14T05:20:12.811Z,15.55
2023-03-14T05:22:59.207Z,10.68
2023-03-14T05:25:30.406Z,12.47
2023-03-14T05:28:19.171Z,17.62
2023-03-14T05:31:09.052Z,14.55
2023-03-14T05:33:55.475Z,17.82
2023-03-14T05:36:27.653Z,10.65
2023-03-14T05:38:58.690Z,16.37
2023-03-14T05:41:45.103Z,17.73
2023-03-14T05:44:31.495Z,22.27
2023-03-14T05:47:13.639Z,16.42
2023-03-14T05:49:41.456Z,24.47
2023-03-14T05:52:11.541Z,20.02
2023-03-14T05:54:59.605Z,27.67
2023-03-14T05:57:42.357Z,22.25
2023-03-14T06:00:14.048Z,21.97
2023-03-14T06:02:43.859Z,16.07
2023-03-14T06:05:13.743Z,17.10
2023-03-14T06:07:42.008Z,29.20
2023-03-14T06:10:10.895Z,20.80
2023-03-14T06:12:41.059Z,20.27
2023-03-14T06:15:09.902Z,21.27
2023-03-14T06:17:38.181Z,29.27
2023-03-14T06:20:11.549Z,17.55
2023-03-14T06:22:40.882Z,28.07
2023-03-14T06:25:09.917Z,19.45
2023-03-14T06:27:37.860Z,19.87
2023-03-14T06:30:07.099Z,16.50
2023-03-14T06:32:34.991Z,19.70
2023-03-14T06:35:05.545Z,19.52
2023-03-14T06:37:35.249Z,24.37
2023-03-14T06:40:03.791Z,22.75
2023-03-14T06:42:48.806Z,24.52
2023-03-14T06:45:17.319Z,18.98
2023-03-14T06:47:45.305Z,20.72
2023-03-14T06:50:13.473Z,19.73
2023-03-14T06:52:44.983Z,18.65
2023-03-14T06:55:12.929Z,32.55
2023-03-14T06:57:42.911Z,21.02
2023-03-14T07:00:13.642Z,22.70
2023-03-14T07:02:43.339Z,32.03
2023-03-14T07:05:13.260Z,26.37
2023-03-14T07:07:41.339Z,14.85
2023-03-14T07:10:11.661Z,18.20
2023-03-14T07:12:39.330Z,13.25
2023-03-14T07:15:18.061Z,17.32
2023-03-14T07:17:37.569Z,16.75
2023-03-14T07:20:08.671Z,15.90
2023-03-14T07:22:39.485Z,17.73
2023-03-14T07:25:18.741Z,28.15
2023-03-14T07:27:48.475Z,18.48
2023-03-14T07:30:17.529Z,21.42
2023-03-14T07:32:45.444Z,13.22
2023-03-14T07:35:13.880Z,18.60
2023-03-14T07:37:41.810Z,13.45
2023-03-14T07:40:12.876Z,16.10
2023-03-14T07:42:40.765Z,19.95
2023-03-14T07:45:13.594Z,15.70
2023-03-14T07:47:41.473Z,10.70
2023-03-14T07:50:11.795Z,12.30
2023-03-14T07:52:39.705Z,29.87
2023-03-14T07:55:08.188Z,10.53
2023-03-14T07:57:36.018Z,13.13
2023-03-14T08:00:05.978Z,14.18
2023-03-14T08:02:36.779Z,15.10
2023-03-14T08:05:05.608Z,19.60
2023-03-14T08:07:33.502Z,10.50
2023-03-14T08:10:01.620Z,14.10
2023-03-14T08:12:29.385Z,17.48
2023-03-14T08:15:00.196Z,11.93
2023-03-14T08:17:29.060Z,12.00
2023-03-14T08:19:56.906Z,12.60
2023-03-14T08:22:24.557Z,14.78
2023-03-14T08:24:52.398Z,17.57
2023-03-14T08:27:20.150Z,27.25
2023-03-14T08:29:47.773Z,18.90
2023-03-14T08:32:15.729Z,43.00
2023-03-14T08:34:44.163Z,8.68
2023-03-14T08:37:23.816Z,9.08
2023-03-14T08:39:41.429Z,10.82
2023-03-14T08:42:09.357Z,13.68
2023-03-14T08:44:37.319Z,10.75
2023-03-14T08:47:05.117Z,21.37
2023-03-14T08:49:33.083Z,9.25
2023-03-14T08:52:04.920Z,10.50
2023-03-14T08:54:33.013Z,10.60
2023-03-14T08:57:00.909Z,9.15
2023-03-14T08:59:28.573Z,10.20
2023-03-14T09:01:56.290Z,10.90
2023-03-14T09:04:24.247Z,13.53
2023-03-14T09:06:52.148Z,10.72
2023-03-14T09:09:19.836Z,11.45
2023-03-14T09:11:47.369Z,21.90
2023-03-14T09:14:15.664Z,55.70
2023-03-14T09:16:43.561Z,11.20
2023-03-14T09:19:12.081Z,49.58
2023-03-14T09:21:40.013Z,12.13
2023-03-14T09:24:08.113Z,9.50
2023-03-14T09:26:35.759Z,16.93
2023-03-14T09:29:03.674Z,9.88
2023-03-14T09:31:31.506Z,10.10
2023-03-14T09:33:59.132Z,12.80
2023-03-14T09:36:26.972Z,22.60
2023-03-14T09:38:54.769Z,44.15
2023-03-14T09:41:30.725Z,12.63
2023-03-14T09:44:25.480Z,12.23
2023-03-14T09:46:58.360Z,11.53
2023-03-14T09:49:31.185Z,15.75
2023-03-14T09:52:04.404Z,46.50
2023-03-14T09:54:47.472Z,20.60
2023-03-14T09:57:19.537Z,14.95
2023-03-14T09:59:49.738Z,21.73
2023-03-14T10:02:28.116Z,10.23
2023-03-14T10:04:55.822Z,11.57
2023-03-14T10:07:32.552Z,15.18
2023-03-14T10:10:00.762Z,19.45
2023-03-14T10:12:34.783Z,17.70
2023-03-14T10:15:12.936Z,11.73
2023-03-14T10:17:49.983Z,7.92
2023-03-14T10:20:42.884Z,20.90
2023-03-14T10:23:19.024Z,10.88
2023-03-14T10:26:01.040Z,12.63
2023-03-14T10:28:35.008Z,10.18
2023-03-14T10:31:02.772Z,7.42
2023-03-14T10:33:34.492Z,34.75
2023-03-14T10:36:20.094Z,14.35
2023-03-14T10:38:48.435Z,13.32
2023-03-14T10:41:20.517Z,32.40
2023-03-14T10:43:58.385Z,13.65
2023-03-14T10:46:31.297Z,18.82
2023-03-14T10:49:31.100Z,13.05
2023-03-14T10:52:30.674Z,12.37
2023-03-14T10:55:04.003Z,12.18
2023-03-14T10:57:31.697Z,11.30
2023-03-14T10:59:59.716Z,20.40
2023-03-14T11:03:03.560Z,28.17
2023-03-14T11:06:00.693Z,29.72
2023-03-14T11:08:36.602Z,12.78
2023-03-14T11:11:23.813Z,15.25
2023-03-14T11:14:20.872Z,31.50
2023-03-14T11:17:09.081Z,11.88
2023-03-14T11:19:57.607Z,9.78
2023-03-14T11:22:58.393Z,16.45
2023-03-14T11:25:51.034Z,13.98
2023-03-14T11:28:42.374Z,17.00
2023-03-14T11:31:30.075Z,12.05
2023-03-14T11:34:18.560Z,18.25
2023-03-14T11:36:58.169Z,38.35
2023-03-14T11:39:36.953Z,19.27
2023-03-14T11:42:05.877Z,17.57
2023-03-14T11:44:41.718Z,22.73
2023-03-14T11:47:28.408Z,17.30
2023-03-14T11:50:26.548Z,14.35
2023-03-14T11:53:00.953Z,11.43
2023-03-14T11:55:34.184Z,12.85
2023-03-14T11:58:23.500Z,13.05
2023-03-14T12:00:55.110Z,11.50
2023-03-14T12:03:49.246Z,12.63
2023-03-14T12:06:49.376Z,10.93
2023-03-14T12:09:20.900Z,10.43
2023-03-14T12:11:58.529Z,9.60
2023-03-14T12:14:37.395Z,12.18
2023-03-14T12:17:22.928Z,9.00
2023-03-14T12:20:18.617Z,7.00
2023-03-14T12:22:50.172Z,8.58
2023-03-14T12:25:25.452Z,9.88
2023-03-14T12:30:38.324Z,14.95
2023-03-14T12:33:23.937Z,10.20
2023-03-14T12:36:00.469Z,4.17
2023-03-14T12:38:46.189Z,6.97
2023-03-14T12:41:32.451Z,20.92
2023-03-14T12:44:31.570Z,6.00
2023-03-14T12:47:01.431Z,3.02
2023-03-14T12:49:37.804Z,3.17
2023-03-14T12:52:13.729Z,5.65
2023-03-14T12:55:08.250Z,1.65
2023-03-14T12:57:59.702Z,3.60
2023-03-14T13:00:41.654Z,3.90
2023-03-14T13:03:25.386Z,2.58
2023-03-14T13:06:03.810Z,3.85
2023-03-14T13:08:42.241Z,4.62
2023-03-14T13:11:15.906Z,3.12
2023-03-14T13:13:50.414Z,9.15
2023-03-14T13:16:21.864Z,8.73
2023-03-14T13:19:02.108Z,5.05
2023-03-14T13:21:39.145Z,2.27
2023-03-14T13:24:12.366Z,6.22
2023-03-14T13:26:44.883Z,4.15
2023-03-14T13:29:31.526Z,6.28
2023-03-14T13:32:02.972Z,4.92
2023-03-14T13:34:35.934Z,7.00
2023-03-14T13:37:09.294Z,3.55
2023-03-14T13:39:40.724Z,3.27
2023-03-14T13:42:16.156Z,5.65
2023-03-14T13:44:45.504Z,6.90
2023-03-14T13:47:20.575Z,4.83
2023-03-14T13:49:51.012Z,5.05
2023-03-14T13:52:39.232Z,4.92
2023-03-14T13:55:18.495Z,9.73
2023-03-14T13:57:54.983Z,4.53
2023-03-14T14:00:27.841Z,4.05
2023-03-14T14:02:58.193Z,3.08
2023-03-14T14:05:31.890Z,6.67
2023-03-14T14:07:59.695Z,5.08
2023-03-14T14:10:29.348Z,5.78
2023-03-14T14:13:01.630Z,4.75
2023-03-14T14:15:36.836Z,25.20
2023-03-14T14:20:41.524Z,7.58
2023-03-14T14:23:25.259Z,11.18
2023-03-14T14:26:03.969Z,6.50
2023-03-14T14:28:38.763Z,5.08
2023-03-14T14:31:26.888Z,11.28
2023-03-14T14:33:59.042Z,12.23
2023-03-14T14:36:44.802Z,7.83
2023-03-14T14:39:22.744Z,16.32
2023-03-14T14:41:53.241Z,25.25
2023-03-14T14:44:29.490Z,24.05
2023-03-14T14:46:59.541Z,11.20
2023-03-14T14:49:34.003Z,14.63
2023-03-14T14:52:07.207Z,12.73
2023-03-14T14:54:46.449Z,14.85
2023-03-14T14:57:30.195Z,13.05
2023-03-14T15:00:07.730Z,13.72
2023-03-14T15:02:43.655Z,13.50
2023-03-14T15:05:19.499Z,34.15
2023-03-14T15:07:48.008Z,33.55
2023-03-14T15:10:23.260Z,50.38
2023-03-14T15:12:51.727Z,56.92
2023-03-14T15:15:20.524Z,88.65
2023-03-14T15:17:48.198Z,53.40
2023-03-14T15:20:18.713Z,37.65
2023-03-14T15:22:47.308Z,28.12
2023-03-14T15:25:36.960Z,16.82
2023-03-14T15:27:45.064Z,35.65
2023-03-14T15:30:25.244Z,75.28
2023-03-14T15:32:56.301Z,74.17
2023-03-14T15:35:24.423Z,60.70
2023-03-14T15:37:52.235Z,50.25
2023-03-14T15:40:30.418Z,26.45
2023-03-14T15:43:01.261Z,54.33
2023-03-14T15:45:28.979Z,88.65
2023-03-14T15:47:56.804Z,59.27
2023-03-14T15:50:25.906Z,103.65
2023-03-14T15:52:53.736Z,159.55
2023-03-14T15:55:21.596Z,164.30
2023-03-14T15:57:50.430Z,202.80
2023-03-14T16:00:22.338Z,109.07
2023-03-14T16:02:52.269Z,90.77
2023-03-14T16:05:22.999Z,109.37
2023-03-14T16:07:50.990Z,86.35
2023-03-14T16:10:21.191Z,66.33
2023-03-14T16:12:51.263Z,79.50
2023-03-14T16:15:21.334Z,169.20
2023-03-14T16:17:54.713Z,164.45
2023-03-14T16:20:23.943Z,134.67
2023-03-14T16:22:52.390Z,130.37
2023-03-14T16:25:22.984Z,127.97
2023-03-14T16:28:10.738Z,127.12
2023-03-14T16:30:33.789Z,97.50
2023-03-14T16:33:03.248Z,117.72
2023-03-14T16:35:31.499Z,124.45
2023-03-14T16:38:01.988Z,121.90
2023-03-14T16:40:31.493Z,124.80
2023-03-14T16:43:21.569Z,164.95
2023-03-14T16:45:42.553Z,118.02
2023-03-14T16:48:10.810Z,122.62
2023-03-14T16:50:40.871Z,109.22
2023-03-14T16:53:11.594Z,115.62
2023-03-14T16:55:44.929Z,111.97
2023-03-14T16:58:14.950Z,131.40
2023-03-14T17:00:45.997Z,141.30
2023-03-14T17:03:14.652Z,144.43
2023-03-14T17:05:47.871Z,162.10
2023-03-14T17:08:17.084Z,155.43
2023-03-14T17:10:47.271Z,158.07
2023-03-14T17:13:16.087Z,145.62
2023-03-14T17:15:46.821Z,114.75
2023-03-14T17:18:14.917Z,120.28
2023-03-14T17:20:43.172Z,92.17
2023-03-14T17:23:17.086Z,95.05
2023-03-14T17:25:47.806Z,73.22
2023-03-14T17:28:25.702Z,74.65
2023-03-14T17:31:13.084Z,70.15
2023-03-14T17:33:44.413Z,181.30
2023-03-14T17:36:13.421Z,121.82
2023-03-14T17:38:41.937Z,98.35
2023-03-14T17:41:15.577Z,88.03
2023-03-14T17:43:45.244Z,102.40
2023-03-14T17:46:16.412Z,92.62
2023-03-14T17:48:57.897Z,84.90
2023-03-14T17:51:28.196Z,75.12
2023-03-14T17:53:56.264Z,74.80
2023-03-14T17:56:24.635Z,70.55
2023-03-14T17:58:53.714Z,54.73
2023-03-14T18:01:21.902Z,45.52
2023-03-14T18:03:49.674Z,48.38
2023-03-14T18:06:17.931Z,52.08
2023-03-14T18:08:46.691Z,63.25
2023-03-14T18:11:14.992Z,51.63
2023-03-14T18:13:43.279Z,47.00
2023-03-14T18:16:16.006Z,47.93
2023-03-14T18:18:48.739Z,41.20
2023-03-14T18:21:18.640Z,43.98
2023-03-14T18:23:48.051Z,43.58
2023-03-14T18:26:18.880Z,44.98
2023-03-14T18:28:46.833Z,45.63
2023-03-14T18:31:20.218Z,55.90
2023-03-14T18:33:52.399Z,36.23
2023-03-14T18:36:21.595Z,39.15
2023-03-14T18:38:52.409Z,28.30
2023-03-14T18:41:23.897Z,30.45
2023-03-14T18:43:54.950Z,27.30
2023-03-14T18:46:23.318Z,29.37
2023-03-14T18:48:53.551Z,32.58
2023-03-14T18:51:25.765Z,34.73
2023-03-14T18:54:02.882Z,33.02
2023-03-14T18:56:28.486Z,34.98
2023-03-14T18:58:56.972Z,31.75
2023-03-14T19:01:27.705Z,53.02
2023-03-14T19:03:55.725Z,46.30
2023-03-14T19:06:24.555Z,38.85
2023-03-14T19:09:01.808Z,43.78
2023-03-14T19:11:29.293Z,37.98
2023-03-14T19:13:58.188Z,31.93
2023-03-14T19:16:28.193Z,35.23
2023-03-14T19:18:57.739Z,29.32
2023-03-14T19:22:06.407Z,34.00
2023-03-14T19:24:35.946Z,31.93
2023-03-14T19:27:06.872Z,30.85
2023-03-14T19:29:36.671Z,29.15
2023-03-14T19:32:05.506Z,40.28
2023-03-14T19:34:38.188Z,30.43
2023-03-14T19:46:07.381Z,26.40
2023-03-14T19:51:53.575Z,31.68
2023-03-14T20:04:53.997Z,30.50
2023-03-14T20:07:41.993Z,29.70
2023-03-14T20:10:11.430Z,34.50
2023-03-14T20:12:39.981Z,29.50
2023-03-14T20:15:09.346Z,30.40
2023-03-14T20:17:38.213Z,34.45
2023-03-14T20:20:09.028Z,28.98
2023-03-14T20:22:37.908Z,29.12
2023-03-14T20:25:11.169Z,26.68
2023-03-14T20:27:39.926Z,35.35
2023-03-14T20:30:12.481Z,32.42
2023-03-14T20:32:42.162Z,27.25
2023-03-14T20:35:12.980Z,27.95
2023-03-14T20:37:41.100Z,22.65
2023-03-14T20:40:11.074Z,23.77
2023-03-14T20:42:39.189Z,26.90
2023-03-14T20:45:08.153Z,27.50
2023-03-14T20:47:36.504Z,30.92
2023-03-14T20:50:06.458Z,33.58
2023-03-14T20:52:36.976Z,33.70
2023-03-14T20:55:06.339Z,28.07
2023-03-14T20:57:34.419Z,27.95
2023-03-14T21:00:04.370Z,25.90
2023-03-14T21:02:33.975Z,24.82
2023-03-14T21:05:02.259Z,26.33
2023-03-14T21:07:34.190Z,28.60
2023-03-14T21:10:02.882Z,25.27
2023-03-14T21:12:31.129Z,24.87
2023-03-14T21:14:58.945Z,21.07
2023-03-14T21:17:27.117Z,18.73
2023-03-14T21:19:56.641Z,20.35
2023-03-14T21:22:26.032Z,16.75
2023-03-14T21:24:54.603Z,18.15
2023-03-14T21:27:22.632Z,20.82
2023-03-14T21:29:50.773Z,24.92
2023-03-14T21:32:20.015Z,23.95
2023-03-14T21:34:52.638Z,27.73
2023-03-14T21:37:23.918Z,25.12
2023-03-14T21:39:52.086Z,24.72
2023-03-14T21:42:21.505Z,21.65
2023-03-14T21:44:51.544Z,21.77
2023-03-14T21:47:22.339Z,24.10
2023-03-14T21:49:51.401Z,21.95
2023-03-14T21:52:23.077Z,19.30
2023-03-14T21:54:52.271Z,16.25
2023-03-14T21:57:24.226Z,17.52
2023-03-14T21:59:55.897Z,16.48
2023-03-14T22:02:23.933Z,19.32
2023-03-14T22:04:57.129Z,23.22
2023-03-14T22:07:25.081Z,22.37
2023-03-14T22:09:53.970Z,22.07
2023-03-14T22:12:22.558Z,23.12
2023-03-14T22:14:50.365Z,26.95
2023-03-14T22:17:20.485Z,23.62
2023-03-14T22:19:50.708Z,23.80
2023-03-14T22:22:18.409Z,17.50
2023-03-14T22:24:45.930Z,12.88
2023-03-14T22:27:13.745Z,18.25
2023-03-14T22:29:43.183Z,16.25
2023-03-14T22:32:12.161Z,15.95
2023-03-14T22:34:40.020Z,14.00
2023-03-14T22:37:08.380Z,17.82
2023-03-14T22:39:36.827Z,16.30
2023-03-14T22:42:05.688Z,14.33
2023-03-14T22:44:34.041Z,13.60
2023-03-14T22:47:02.255Z,14.05
2023-03-14T22:49:32.740Z,13.20
2023-03-14T22:52:00.557Z,9.85
2023-03-14T22:57:54.613Z,9.03
2023-03-14T23:00:22.517Z,12.20
2023-03-14T23:02:50.743Z,11.97
2023-03-14T23:05:18.659Z,9.35
2023-03-14T23:07:46.585Z,10.20
2023-03-14T23:10:14.433Z,10.88
2023-03-14T23:12:43.923Z,15.83
2023-03-14T23:15:15.683Z,13.80
2023-03-14T23:17:44.714Z,15.88
2023-03-14T23:20:13.224Z,17.48
2023-03-14T23:22:40.908Z,16.77
2023-03-14T23:25:10.372Z,13.62
2023-03-14T23:27:38.551Z,12.68
2023-03-14T23:30:07.613Z,18.92
2023-03-14T23:32:35.687Z,20.95
2023-03-14T23:35:04.120Z,23.15
2023-03-14T23:37:33.367Z,27.52
2023-03-14T23:40:01.448Z,21.80
2023-03-14T23:42:29.397Z,27.93
2023-03-14T23:44:57.189Z,26.93
2023-03-14T23:47:25.184Z,25.60
2023-03-14T23:49:53.003Z,26.02
2023-03-14T23:52:20.904Z,19.37
2023-03-14T23:54:48.721Z,12.47
2023-03-14T23:57:16.297Z,13.28
2023-03-14T23:59:44.210Z,10.40
